createdAt,value
2023-04-02T00:00:57.126Z,8.23
2023-04-02T00:01:57.122Z,8.25
2023-04-02T00:02:57.197Z,8.22
2023-04-02T00:03:57.073Z,8.22
2023-04-02T00:04:57.067Z,8.22
2023-04-02T00:05:57.052Z,8.23
2023-04-02T00:06:57.065Z,8.23
2023-04-02T00:07:57.028Z,8.23
2023-04-02T00:08:57.017Z,8.20
2023-04-02T00:09:57.160Z,8.19
2023-04-02T00:10:57.054Z,8.12
2023-04-02T00:11:56.992Z,8.12
2023-04-02T00:12:56.980Z,8.04
2023-04-02T00:13:56.958Z,8.04
2023-04-02T00:14:56.963Z,8.02
2023-04-02T00:15:57.004Z,8.02
2023-04-02T00:16:56.950Z,8.02
2023-04-02T00:17:56.925Z,8.00
2023-04-02T00:18:56.926Z,7.98
2023-04-02T00:19:56.898Z,7.95
2023-04-02T00:20:56.911Z,7.93
2023-04-02T00:21:56.872Z,7.92
2023-04-02T00:22:56.889Z,7.93
2023-04-02T00:23:56.861Z,7.90
2023-04-02T00:24:56.852Z,7.92
2023-04-02T00:25:56.840Z,7.92
2023-04-02T00:26:56.845Z,7.89
2023-04-02T00:27:56.820Z,7.93
2023-04-02T00:28:56.809Z,7.95
2023-04-02T00:29:56.813Z,7.98
2023-04-02T00:30:56.802Z,7.98
2023-04-02T00:31:56.802Z,7.97
2023-04-02T00:32:56.794Z,7.98
2023-04-02T00:33:56.751Z,7.95
2023-04-02T00:34:56.760Z,7.97
2023-04-02T00:35:56.736Z,7.97
2023-04-02T00:36:56.752Z,7.93
2023-04-02T00:37:56.747Z,7.93
2023-04-02T00:38:56.705Z,7.97
2023-04-02T00:39:56.681Z,7.92
2023-04-02T00:40:56.699Z,7.97
2023-04-02T00:41:56.669Z,8.00
2023-04-02T00:42:56.675Z,7.98
2023-04-02T00:43:56.659Z,7.97
2023-04-02T00:44:56.644Z,7.93
2023-04-02T00:45:56.712Z,7.86
2023-04-02T00:46:56.620Z,7.83
2023-04-02T00:47:56.601Z,7.87
2023-04-02T00:48:56.608Z,7.82
2023-04-02T00:49:56.580Z,7.83
2023-04-02T00:50:56.576Z,7.85
2023-04-02T00:51:56.555Z,7.89
2023-04-02T00:52:56.550Z,7.87
2023-04-02T00:53:56.539Z,7.86
2023-04-02T00:54:56.533Z,7.85
2023-04-02T00:55:56.512Z,7.83
2023-04-02T00:56:56.675Z,7.87
2023-04-02T00:57:56.486Z,7.86
2023-04-02T00:58:56.482Z,7.85
2023-04-02T00:59:56.481Z,7.86
2023-04-02T01:00:56.519Z,7.83
2023-04-02T01:01:56.452Z,7.87
2023-04-02T01:02:56.462Z,7.86
2023-04-02T01:03:56.426Z,7.83
2023-04-02T01:04:56.418Z,7.80
2023-04-02T01:05:56.435Z,7.79
2023-04-02T01:06:56.423Z,7.77
2023-04-02T01:07:56.374Z,7.79
2023-04-02T01:08:56.379Z,7.77
2023-04-02T01:09:56.367Z,7.83
2023-04-02T01:10:56.353Z,7.80
2023-04-02T01:11:56.332Z,7.80
2023-04-02T01:12:56.343Z,7.79
2023-04-02T01:13:56.316Z,7.74
2023-04-02T01:14:56.321Z,7.72
2023-04-02T01:15:56.357Z,7.69
2023-04-02T01:16:56.301Z,7.69
2023-04-02T01:17:56.362Z,7.67
2023-04-02T01:18:56.256Z,7.68
2023-04-02T01:19:56.260Z,7.67
2023-04-02T01:20:56.238Z,7.67
2023-04-02T01:21:57.070Z,7.64
2023-04-02T01:22:56.219Z,7.64
2023-04-02T01:23:56.207Z,7.63
2023-04-02T01:24:56.194Z,7.61
2023-04-02T01:25:56.398Z,7.61
2023-04-02T01:26:56.165Z,7.63
2023-04-02T01:27:56.186Z,7.64
2023-04-02T01:28:56.147Z,7.61
2023-04-02T01:29:56.157Z,7.63
2023-04-02T01:30:56.174Z,7.61
2023-04-02T01:31:56.128Z,7.63
2023-04-02T01:32:56.173Z,7.61
2023-04-02T01:33:56.107Z,7.60
2023-04-02T01:34:56.088Z,7.58
2023-04-02T01:35:56.110Z,7.55
2023-04-02T01:36:56.058Z,7.52
2023-04-02T01:37:56.130Z,7.49
2023-04-02T01:38:56.060Z,7.46
2023-04-02T01:39:56.063Z,7.42
2023-04-02T01:40:56.018Z,7.42
2023-04-02T01:41:56.026Z,7.39
2023-04-02T01:42:55.998Z,7.35
2023-04-02T01:43:56.002Z,7.34
2023-04-02T01:44:55.987Z,7.30
2023-04-02T01:45:55.978Z,7.30
2023-04-02T01:46:55.987Z,7.31
2023-04-02T01:47:55.970Z,7.35
2023-04-02T01:48:55.938Z,7.35
2023-04-02T01:49:55.942Z,7.34
2023-04-02T01:50:55.915Z,7.31
2023-04-02T01:51:55.907Z,7.30
2023-04-02T01:52:55.883Z,7.25
2023-04-02T01:53:55.894Z,7.20
2023-04-02T01:54:55.867Z,7.16
2023-04-02T01:55:55.916Z,7.15
2023-04-02T01:56:55.876Z,7.09
2023-04-02T01:57:55.847Z,7.05
2023-04-02T01:58:55.831Z,7.05
2023-04-02T01:59:55.824Z,7.05
2023-04-02T02:00:55.843Z,7.02
2023-04-02T02:01:55.820Z,7.02
2023-04-02T02:02:55.800Z,6.99
2023-04-02T02:03:55.779Z,6.92
2023-04-02T02:04:55.789Z,6.88
2023-04-02T02:05:55.771Z,6.85
2023-04-02T02:06:55.742Z,6.79
2023-04-02T02:07:55.756Z,6.77
2023-04-02T02:08:55.726Z,6.74
2023-04-02T02:09:55.721Z,6.76
2023-04-02T02:10:55.698Z,6.76
2023-04-02T02:11:55.698Z,6.74
2023-04-02T02:12:55.675Z,6.76
2023-04-02T02:13:55.696Z,6.76
2023-04-02T02:14:55.689Z,6.73
2023-04-02T02:15:55.712Z,6.74
2023-04-02T02:16:55.640Z,6.76
2023-04-02T02:17:55.651Z,6.77
2023-04-02T02:18:55.618Z,6.77
2023-04-02T02:19:55.630Z,6.74
2023-04-02T02:20:55.588Z,6.76
2023-04-02T02:21:55.588Z,6.80
2023-04-02T02:22:55.569Z,6.80
2023-04-02T02:23:55.591Z,6.81
2023-04-02T02:24:55.554Z,6.84
2023-04-02T02:25:55.556Z,6.87
2023-04-02T02:26:55.526Z,6.88
2023-04-02T02:27:55.533Z,6.87
2023-04-02T02:28:55.520Z,6.92
2023-04-02T02:29:55.535Z,6.95
2023-04-02T02:30:56.300Z,6.95
2023-04-02T02:31:55.520Z,6.95
2023-04-02T02:32:55.502Z,6.97
2023-04-02T02:33:55.464Z,7.06
2023-04-02T02:34:55.443Z,7.10
2023-04-02T02:35:55.500Z,7.13
2023-04-02T02:36:55.427Z,7.16
2023-04-02T02:37:55.435Z,7.20
2023-04-02T02:38:55.399Z,7.25
2023-04-02T02:39:55.449Z,7.31
2023-04-02T02:40:55.390Z,7.39
2023-04-02T02:41:55.385Z,7.42
2023-04-02T02:42:55.356Z,7.43
2023-04-02T02:43:55.355Z,7.46
2023-04-02T02:44:55.341Z,7.43
2023-04-02T02:45:55.358Z,7.45
2023-04-02T02:46:55.322Z,7.46
2023-04-02T02:47:55.386Z,7.46
2023-04-02T02:48:55.297Z,7.49
2023-04-02T02:49:55.292Z,7.50
2023-04-02T02:50:55.271Z,7.49
2023-04-02T02:51:56.075Z,7.49
2023-04-02T02:52:55.258Z,7.52
2023-04-02T02:53:55.251Z,7.52
2023-04-02T02:54:55.229Z,7.50
2023-04-02T02:55:56.041Z,7.49
2023-04-02T02:56:55.240Z,7.49
2023-04-02T02:57:55.220Z,7.50
2023-04-02T02:58:55.200Z,7.49
2023-04-02T02:59:55.186Z,7.50
2023-04-02T03:00:55.164Z,7.46
2023-04-02T03:01:55.160Z,7.46
2023-04-02T03:02:55.245Z,7.43
2023-04-02T03:03:55.405Z,7.40
2023-04-02T03:04:55.136Z,7.42
2023-04-02T03:05:55.133Z,7.35
2023-04-02T03:06:55.915Z,7.39
2023-04-02T03:07:55.117Z,7.37
2023-04-02T03:08:55.075Z,7.37
2023-04-02T03:09:55.098Z,7.37
2023-04-02T03:10:55.052Z,7.32
2023-04-02T03:11:55.052Z,7.32
2023-04-02T03:12:55.031Z,7.32
2023-04-02T03:13:55.047Z,7.35
2023-04-02T03:14:55.020Z,7.30
2023-04-02T03:15:55.049Z,7.31
2023-04-02T03:16:54.990Z,7.28
2023-04-02T03:17:55.070Z,7.27
2023-04-02T03:18:54.980Z,7.24
2023-04-02T03:19:55.008Z,7.24
2023-04-02T03:20:54.951Z,7.24
2023-04-02T03:21:55.037Z,7.27
2023-04-02T03:22:54.932Z,7.27
2023-04-02T03:23:54.923Z,7.25
2023-04-02T03:24:54.912Z,7.25
2023-04-02T03:25:55.692Z,7.28
2023-04-02T03:26:54.880Z,7.28
2023-04-02T03:27:54.889Z,7.25
2023-04-02T03:28:54.858Z,7.23
2023-04-02T03:29:55.673Z,7.20
2023-04-02T03:30:54.870Z,7.24
2023-04-02T03:31:54.849Z,7.20
2023-04-02T03:32:54.879Z,7.17
2023-04-02T03:33:54.832Z,7.20
2023-04-02T03:34:54.817Z,7.23
2023-04-02T03:35:54.833Z,7.24
2023-04-02T03:36:54.798Z,7.21
2023-04-02T03:37:54.780Z,7.21
2023-04-02T03:38:54.760Z,7.20
2023-04-02T03:39:54.776Z,7.20
2023-04-02T03:40:54.736Z,7.17
2023-04-02T03:41:54.730Z,7.21
2023-04-02T03:42:54.758Z,7.21
2023-04-02T03:43:54.721Z,7.20
2023-04-02T03:44:54.700Z,7.21
2023-04-02T03:45:54.683Z,7.21
2023-04-02T03:46:54.701Z,7.23
2023-04-02T03:47:54.702Z,7.21
2023-04-02T03:48:54.895Z,7.16
2023-04-02T03:49:54.644Z,7.13
2023-04-02T03:50:54.624Z,7.12
2023-04-02T03:51:54.630Z,7.13
2023-04-02T03:52:54.628Z,7.09
2023-04-02T03:53:54.602Z,7.03
2023-04-02T03:54:54.726Z,7.02
2023-04-02T03:55:54.579Z,7.05
2023-04-02T03:56:54.684Z,6.99
2023-04-02T03:57:54.583Z,6.94
2023-04-02T03:58:54.557Z,6.92
2023-04-02T03:59:54.556Z,6.88
2023-04-02T04:00:54.531Z,6.80
2023-04-02T04:01:54.547Z,6.76
2023-04-02T04:02:54.579Z,6.71
2023-04-02T04:03:54.534Z,6.64
2023-04-02T04:04:54.501Z,6.61
2023-04-02T04:05:54.494Z,6.56
2023-04-02T04:06:54.452Z,6.52
2023-04-02T04:07:54.482Z,6.43
2023-04-02T04:08:54.436Z,6.40
2023-04-02T04:09:54.439Z,6.36
2023-04-02T04:10:55.304Z,6.31
2023-04-02T04:11:54.423Z,6.27
2023-04-02T04:12:54.412Z,6.18
2023-04-02T04:13:54.392Z,6.15
2023-04-02T04:14:54.374Z,6.11
2023-04-02T04:15:54.421Z,6.06
2023-04-02T04:16:54.537Z,6.03
2023-04-02T04:17:54.373Z,5.97
2023-04-02T04:18:54.349Z,5.94
2023-04-02T04:19:54.334Z,5.90
2023-04-02T04:20:54.306Z,5.83
2023-04-02T04:21:54.311Z,5.76
2023-04-02T04:22:54.292Z,5.68
2023-04-02T04:23:54.281Z,5.61
2023-04-02T04:24:54.278Z,5.54
2023-04-02T04:25:54.262Z,5.42
2023-04-02T04:26:54.254Z,5.33
2023-04-02T04:27:54.242Z,5.31
2023-04-02T04:28:54.224Z,5.27
2023-04-02T04:29:54.247Z,5.20
2023-04-02T04:30:54.202Z,5.13
2023-04-02T04:31:54.255Z,5.07
2023-04-02T04:32:54.189Z,5.03
2023-04-02T04:33:54.188Z,4.94
2023-04-02T04:34:54.178Z,4.91
2023-04-02T04:35:54.215Z,4.88
2023-04-02T04:36:54.574Z,4.88
2023-04-02T04:37:54.376Z,4.88
2023-04-02T04:38:54.111Z,4.85
2023-04-02T04:39:54.121Z,4.84
2023-04-02T04:40:54.296Z,4.78
2023-04-02T04:41:54.091Z,4.75
2023-04-02T04:42:54.076Z,4.72
2023-04-02T04:43:54.076Z,4.73
2023-04-02T04:44:54.062Z,4.77
2023-04-02T04:45:54.102Z,4.73
2023-04-02T04:46:54.052Z,4.77
2023-04-02T04:47:54.077Z,4.73
2023-04-02T04:48:54.004Z,4.75
2023-04-02T04:49:54.010Z,4.70
2023-04-02T04:50:54.018Z,4.69
2023-04-02T04:51:54.025Z,4.67
2023-04-02T04:52:53.984Z,4.66
2023-04-02T04:53:53.964Z,4.65
2023-04-02T04:54:53.944Z,4.65
2023-04-02T04:55:54.765Z,4.60
2023-04-02T04:56:53.965Z,4.59
2023-04-02T04:57:53.936Z,4.55
2023-04-02T04:58:53.920Z,4.55
2023-04-02T04:59:54.054Z,4.50
2023-04-02T05:00:53.896Z,4.48
2023-04-02T05:01:53.927Z,4.47
2023-04-02T05:02:53.907Z,4.48
2023-04-02T05:03:54.032Z,4.45
2023-04-02T05:04:53.857Z,4.45
2023-04-02T05:05:53.836Z,4.44
2023-04-02T05:06:53.826Z,4.45
2023-04-02T05:07:53.821Z,4.45
2023-04-02T05:08:53.816Z,4.50
2023-04-02T05:09:53.800Z,4.48
2023-04-02T05:10:53.785Z,4.47
2023-04-02T05:11:53.782Z,4.47
2023-04-02T05:12:53.758Z,4.48
2023-04-02T05:13:53.760Z,4.48
2023-04-02T05:14:53.770Z,4.48
2023-04-02T05:15:53.798Z,4.51
2023-04-02T05:16:53.710Z,4.55
2023-04-02T05:17:53.874Z,4.55
2023-04-02T05:18:53.717Z,4.65
2023-04-02T05:19:53.692Z,4.66
2023-04-02T05:20:53.688Z,4.72
2023-04-02T05:21:53.673Z,4.80
2023-04-02T05:22:53.653Z,4.82
2023-04-02T05:23:53.650Z,4.85
2023-04-02T05:24:53.643Z,4.88
2023-04-02T05:25:53.632Z,4.97
2023-04-02T05:26:53.666Z,5.03
2023-04-02T05:27:53.624Z,5.06
2023-04-02T05:28:53.597Z,5.10
2023-04-02T05:29:53.588Z,5.17
2023-04-02T05:30:53.589Z,5.18
2023-04-02T05:31:53.564Z,5.22
2023-04-02T05:32:53.603Z,5.24
2023-04-02T05:33:53.533Z,5.27
2023-04-02T05:34:53.536Z,5.35
2023-04-02T05:35:53.618Z,5.45
2023-04-02T05:36:53.513Z,5.57
2023-04-02T05:37:53.529Z,5.74
2023-04-02T05:38:53.532Z,5.86
2023-04-02T05:39:53.484Z,5.93
2023-04-02T05:40:53.472Z,6.00
2023-04-02T05:41:53.454Z,6.04
2023-04-02T05:42:53.454Z,6.08
2023-04-02T05:43:53.439Z,6.08
2023-04-02T05:44:53.436Z,6.11
2023-04-02T05:45:53.426Z,6.09
2023-04-02T05:46:53.503Z,6.12
2023-04-02T05:47:53.467Z,6.08
2023-04-02T05:48:53.392Z,6.14
2023-04-02T05:49:53.388Z,6.12
2023-04-02T05:50:53.376Z,6.17
2023-04-02T05:51:53.348Z,6.17
2023-04-02T05:52:53.353Z,6.19
2023-04-02T05:53:53.336Z,6.19
2023-04-02T05:54:53.339Z,6.21
2023-04-02T05:55:53.362Z,6.27
2023-04-02T05:56:53.388Z,6.28
2023-04-02T05:58:13.626Z,6.31
2023-04-02T05:58:54.352Z,6.33
2023-04-02T05:59:53.265Z,6.38
2023-04-02T06:00:53.274Z,6.40
2023-04-02T06:01:53.270Z,6.46
2023-04-02T06:02:53.301Z,6.49
2023-04-02T06:03:53.312Z,6.55
2023-04-02T06:04:53.225Z,6.61
2023-04-02T06:05:53.212Z,6.64
2023-04-02T06:06:53.203Z,6.70
2023-04-02T06:07:53.190Z,6.74
2023-04-02T06:08:53.182Z,6.79
2023-04-02T06:09:53.167Z,6.84
2023-04-02T06:10:53.156Z,6.91
2023-04-02T06:11:53.139Z,6.92
2023-04-02T06:12:53.173Z,6.97
2023-04-02T06:13:54.614Z,7.03
2023-04-02T06:14:53.126Z,7.07
2023-04-02T06:15:53.096Z,7.16
2023-04-02T06:16:53.177Z,7.20
2023-04-02T06:17:53.103Z,7.30
2023-04-02T06:18:53.072Z,7.35
2023-04-02T06:19:53.076Z,7.40
2023-04-02T06:20:53.111Z,7.48
2023-04-02T06:21:53.035Z,7.55
2023-04-02T06:22:53.302Z,7.57
2023-04-02T06:23:53.018Z,7.58
2023-04-02T06:24:53.020Z,7.67
2023-04-02T06:25:54.004Z,7.69
2023-04-02T06:26:52.998Z,7.79
2023-04-02T06:27:52.985Z,7.83
2023-04-02T06:28:52.978Z,7.90
2023-04-02T06:29:52.982Z,7.97
2023-04-02T06:30:53.001Z,8.00
2023-04-02T06:31:52.947Z,8.04
2023-04-02T06:32:52.993Z,8.10
2023-04-02T06:33:52.907Z,8.15
2023-04-02T06:34:52.907Z,8.20
2023-04-02T06:35:52.904Z,8.26
2023-04-02T06:36:52.895Z,8.30
2023-04-02T06:37:52.865Z,8.40
2023-04-02T06:38:52.856Z,8.33
2023-04-02T06:39:52.860Z,8.37
2023-04-02T06:40:52.838Z,8.44
2023-04-02T06:41:52.831Z,8.47
2023-04-02T06:42:52.821Z,8.56
2023-04-02T06:43:52.801Z,8.62
2023-04-02T06:44:52.798Z,8.73
2023-04-02T06:45:52.888Z,8.77
2023-04-02T06:46:52.890Z,8.81
2023-04-02T06:47:52.787Z,8.83
2023-04-02T06:48:52.760Z,8.92
2023-04-02T06:49:53.196Z,8.95
2023-04-02T06:50:52.736Z,9.05
2023-04-02T06:51:52.715Z,9.13
2023-04-02T06:52:52.713Z,8.95
2023-04-02T06:53:52.690Z,9.04
2023-04-02T06:54:52.765Z,9.10
2023-04-02T06:55:52.692Z,9.05
2023-04-02T06:56:52.810Z,9.01
2023-04-02T06:57:53.028Z,9.04
2023-04-02T06:58:52.656Z,9.04
2023-04-02T06:59:52.636Z,8.95
2023-04-02T07:00:52.632Z,8.94
2023-04-02T07:01:52.725Z,8.89
2023-04-02T07:02:52.636Z,8.91
2023-04-02T07:03:52.588Z,8.98
2023-04-02T07:04:52.633Z,8.92
2023-04-02T07:05:52.565Z,8.94
2023-04-02T07:06:52.580Z,9.10
2023-04-02T07:07:52.547Z,9.15
2023-04-02T07:08:52.540Z,9.13
2023-04-02T07:09:52.522Z,9.10
2023-04-02T07:10:52.566Z,9.14
2023-04-02T07:11:52.505Z,9.10
2023-04-02T07:12:52.516Z,9.10
2023-04-02T07:13:52.480Z,9.14
2023-04-02T07:14:52.472Z,9.10
2023-04-02T07:15:52.523Z,9.18
2023-04-02T07:16:52.446Z,9.29
2023-04-02T07:17:52.510Z,9.35
2023-04-02T07:18:53.038Z,9.33
2023-04-02T07:19:52.417Z,9.38
2023-04-02T07:20:52.621Z,9.36
2023-04-02T07:21:52.388Z,9.38
2023-04-02T07:22:52.390Z,9.47
2023-04-02T07:23:52.368Z,9.58
2023-04-02T07:24:52.367Z,9.61
2023-04-02T07:25:52.367Z,9.75
2023-04-02T07:26:52.345Z,9.87
2023-04-02T07:27:52.320Z,9.97
2023-04-02T07:28:52.341Z,9.91
2023-04-02T07:29:53.128Z,9.90
2023-04-02T07:30:52.307Z,9.99
2023-04-02T07:31:52.411Z,9.93
2023-04-02T07:32:52.351Z,10.11
2023-04-02T07:33:52.281Z,10.07
2023-04-02T07:34:52.268Z,10.25
2023-04-02T07:35:52.276Z,10.41
2023-04-02T07:36:52.241Z,10.60
2023-04-02T07:37:52.230Z,10.59
2023-04-02T07:38:52.442Z,10.64
2023-04-02T07:39:52.267Z,10.76
2023-04-02T07:40:52.201Z,10.84
2023-04-02T07:41:52.185Z,10.88
2023-04-02T07:42:52.200Z,10.91
2023-04-02T07:43:52.163Z,10.88
2023-04-02T07:44:52.160Z,10.97
2023-04-02T07:45:52.126Z,10.86
2023-04-02T07:46:52.206Z,10.91
2023-04-02T07:47:52.115Z,11.07
2023-04-02T07:48:52.119Z,11.17
2023-04-02T07:49:52.096Z,11.35
2023-04-02T07:50:52.082Z,11.33
2023-04-02T07:51:52.091Z,11.29
2023-04-02T07:52:52.067Z,11.28
2023-04-02T07:53:52.057Z,11.29
2023-04-02T07:54:52.058Z,11.33
2023-04-02T07:55:52.016Z,11.33
2023-04-02T07:56:52.070Z,11.33
2023-04-02T07:57:51.997Z,11.40
2023-04-02T07:58:51.996Z,11.57
2023-04-02T07:59:51.992Z,11.51
2023-04-02T08:00:51.985Z,11.62
2023-04-02T08:01:52.217Z,11.82
2023-04-02T08:02:52.044Z,12.12
2023-04-02T08:03:54.296Z,12.21
2023-04-02T08:04:51.933Z,12.42
2023-04-02T08:05:51.958Z,12.62
2023-04-02T08:06:51.917Z,12.52
2023-04-02T08:07:51.922Z,12.64
2023-04-02T08:08:51.914Z,12.67
2023-04-02T08:09:51.874Z,12.54
2023-04-02T08:10:51.869Z,12.41
2023-04-02T08:11:51.856Z,12.56
2023-04-02T08:12:51.861Z,12.79
2023-04-02T08:13:51.849Z,13.15
2023-04-02T08:14:51.832Z,13.39
2023-04-02T08:15:51.805Z,13.62
2023-04-02T08:16:51.929Z,13.77
2023-04-02T08:17:51.869Z,13.97
2023-04-02T08:18:51.781Z,14.14
2023-04-02T08:19:55.109Z,13.89
2023-04-02T08:20:51.763Z,13.85
2023-04-02T08:21:51.763Z,14.00
2023-04-02T08:22:51.742Z,14.04
2023-04-02T08:23:51.746Z,13.64
2023-04-02T08:24:51.730Z,13.20
2023-04-02T08:25:51.817Z,13.14
2023-04-02T08:26:51.744Z,12.85
2023-04-02T08:27:51.674Z,12.78
2023-04-02T08:28:51.696Z,12.79
2023-04-02T08:29:51.673Z,12.85
2023-04-02T08:30:51.699Z,12.92
2023-04-02T08:31:51.655Z,13.15
2023-04-02T08:32:51.698Z,13.48
2023-04-02T08:33:51.631Z,13.41
2023-04-02T08:34:51.745Z,13.44
2023-04-02T08:35:51.663Z,13.66
2023-04-02T08:36:51.606Z,13.64
2023-04-02T08:37:51.564Z,13.79
2023-04-02T08:38:51.577Z,13.88
2023-04-02T08:39:51.552Z,14.00
2023-04-02T08:40:51.554Z,13.96
2023-04-02T08:41:51.524Z,14.20
2023-04-02T08:42:51.524Z,14.40
2023-04-02T08:43:51.510Z,14.27
2023-04-02T08:44:51.512Z,14.12
2023-04-02T08:45:51.550Z,13.69
2023-04-02T08:46:52.307Z,13.46
2023-04-02T08:47:51.514Z,13.22
2023-04-02T08:48:51.463Z,13.15
2023-04-02T08:49:51.447Z,13.29
2023-04-02T08:50:51.451Z,13.46
2023-04-02T08:51:51.417Z,13.57
2023-04-02T08:52:51.415Z,13.77
2023-04-02T08:53:51.391Z,13.82
2023-04-02T08:54:51.396Z,13.79
2023-04-02T08:55:51.432Z,13.99
2023-04-02T08:56:51.392Z,14.02
2023-04-02T08:57:51.646Z,14.10
2023-04-02T08:58:51.362Z,14.10
2023-04-02T08:59:51.321Z,14.28
2023-04-02T09:00:51.330Z,14.35
2023-04-02T09:01:51.356Z,14.09
2023-04-02T09:02:51.316Z,13.70
2023-04-02T09:03:51.282Z,13.92
2023-04-02T09:04:51.323Z,14.04
2023-04-02T09:05:51.268Z,14.18
2023-04-02T09:06:51.310Z,14.14
2023-04-02T09:07:51.243Z,14.17
2023-04-02T09:08:51.239Z,14.39
2023-04-02T09:09:51.223Z,14.45
2023-04-02T09:10:51.236Z,14.73
2023-04-02T09:11:51.195Z,14.88
2023-04-02T09:12:51.200Z,14.75
2023-04-02T09:13:51.176Z,14.64
2023-04-02T09:14:51.187Z,14.77
2023-04-02T09:15:51.175Z,15.01
2023-04-02T09:16:51.152Z,14.91
2023-04-02T09:17:54.345Z,14.50
2023-04-02T09:18:51.156Z,14.68
2023-04-02T09:19:51.108Z,14.78
2023-04-02T09:20:51.110Z,14.80
2023-04-02T09:21:51.118Z,15.02
2023-04-02T09:22:51.088Z,14.73
2023-04-02T09:23:51.068Z,14.51
2023-04-02T09:24:51.066Z,14.51
2023-04-02T09:26:02.915Z,14.69
2023-04-02T09:26:52.060Z,14.39
2023-04-02T09:27:51.032Z,14.32
2023-04-02T09:28:51.054Z,14.40
2023-04-02T09:29:51.013Z,14.33
2023-04-02T09:30:51.015Z,14.35
2023-04-02T09:31:51.033Z,14.54
2023-04-02T09:32:51.873Z,14.89
2023-04-02T09:33:50.975Z,14.92
2023-04-02T09:34:50.977Z,14.57
2023-04-02T09:35:50.971Z,14.06
2023-04-02T09:36:51.192Z,13.96
2023-04-02T09:37:51.724Z,13.99
2023-04-02T09:38:50.932Z,14.32
2023-04-02T09:39:51.171Z,14.15
2023-04-02T09:40:50.897Z,14.15
2023-04-02T09:42:02.802Z,14.17
2023-04-02T09:42:51.876Z,14.32
2023-04-02T09:43:50.920Z,14.68
2023-04-02T09:44:50.871Z,14.54
2023-04-02T09:45:50.838Z,14.68
2023-04-02T09:46:50.866Z,14.83
2023-04-02T09:47:50.849Z,14.62
2023-04-02T09:48:51.628Z,14.91
2023-04-02T09:49:50.807Z,15.20
2023-04-02T09:50:50.791Z,15.57
2023-04-02T09:51:50.782Z,16.01
2023-04-02T09:52:50.762Z,16.05
2023-04-02T09:53:50.782Z,16.11
2023-04-02T09:54:50.743Z,16.23
2023-04-02T09:55:50.738Z,15.62
2023-04-02T09:56:50.791Z,16.00
2023-04-02T09:57:50.720Z,16.14
2023-04-02T09:58:50.702Z,16.12
2023-04-02T09:59:50.879Z,16.46
2023-04-02T10:00:50.690Z,16.30
2023-04-02T10:01:50.694Z,16.39
2023-04-02T10:02:50.693Z,16.48
2023-04-02T10:03:50.662Z,16.68
2023-04-02T10:04:50.651Z,16.64
2023-04-02T10:05:50.630Z,16.53
2023-04-02T10:06:50.708Z,16.39
2023-04-02T10:07:50.612Z,16.49
2023-04-02T10:08:50.596Z,16.66
2023-04-02T10:09:50.583Z,16.94
2023-04-02T10:10:50.625Z,16.86
2023-04-02T10:11:50.565Z,16.89
2023-04-02T10:12:50.744Z,16.64
2023-04-02T10:13:50.539Z,16.58
2023-04-02T10:14:50.522Z,16.28
2023-04-02T10:15:50.921Z,15.89
2023-04-02T10:16:50.558Z,15.57
2023-04-02T10:17:50.518Z,15.60
2023-04-02T10:18:50.493Z,15.57
2023-04-02T10:19:50.727Z,15.57
2023-04-02T10:20:51.553Z,15.19
2023-04-02T10:21:50.452Z,14.88
2023-04-02T10:22:50.440Z,14.75
2023-04-02T10:23:50.440Z,15.28
2023-04-02T10:24:50.661Z,15.67
2023-04-02T10:25:50.420Z,15.56
2023-04-02T10:26:50.400Z,15.57
2023-04-02T10:27:50.393Z,15.50
2023-04-02T10:28:50.380Z,15.74
2023-04-02T10:29:50.368Z,15.93
2023-04-02T10:30:50.613Z,16.49
2023-04-02T10:31:50.383Z,16.43
2023-04-02T10:32:50.381Z,16.73
2023-04-02T10:33:50.335Z,17.06
2023-04-02T10:34:50.315Z,16.81
2023-04-02T10:35:50.343Z,16.52
2023-04-02T10:36:50.294Z,16.48
2023-04-02T10:37:50.285Z,16.70
2023-04-02T10:38:50.264Z,16.94
2023-04-02T10:39:50.255Z,17.15
2023-04-02T10:40:50.455Z,17.07
2023-04-02T10:41:50.237Z,16.81
2023-04-02T10:42:50.221Z,16.66
2023-04-02T10:43:50.220Z,17.15
2023-04-02T10:44:50.318Z,17.43
2023-04-02T10:45:50.230Z,17.63
2023-04-02T10:46:50.198Z,17.97
2023-04-02T10:47:50.208Z,17.84
2023-04-02T10:48:50.177Z,17.74
2023-04-02T10:49:50.171Z,17.48
2023-04-02T10:50:50.133Z,17.78
2023-04-02T10:51:50.148Z,18.29
2023-04-02T10:52:50.134Z,18.78
2023-04-02T10:53:50.123Z,19.16
2023-04-02T10:54:50.907Z,19.46
2023-04-02T10:55:50.087Z,19.83
2023-04-02T10:56:51.394Z,19.36
2023-04-02T10:57:50.069Z,18.92
2023-04-02T10:58:50.044Z,19.31
2023-04-02T10:59:50.051Z,19.48
2023-04-02T11:00:50.025Z,19.29
2023-04-02T11:01:50.049Z,19.31
2023-04-02T11:02:50.103Z,19.37
2023-04-02T11:03:50.135Z,18.92
2023-04-02T11:04:50.011Z,18.73
2023-04-02T11:05:49.980Z,18.27
2023-04-02T11:06:49.960Z,18.29
2023-04-02T11:07:49.971Z,18.25
2023-04-02T11:08:49.953Z,17.72
2023-04-02T11:09:49.941Z,17.44
2023-04-02T11:10:49.924Z,17.77
2023-04-02T11:11:49.914Z,17.81
2023-04-02T11:12:49.903Z,17.75
2023-04-02T11:13:49.897Z,18.20
2023-04-02T11:14:49.879Z,18.30
2023-04-02T11:15:49.900Z,18.36
2023-04-02T11:16:49.928Z,18.21
2023-04-02T11:17:49.913Z,18.20
2023-04-02T11:18:49.826Z,17.81
2023-04-02T11:19:49.830Z,18.29
2023-04-02T11:20:49.850Z,18.17
2023-04-02T11:21:58.742Z,18.80
2023-04-02T11:22:50.792Z,19.71
2023-04-02T11:23:49.795Z,20.32
2023-04-02T11:24:49.870Z,20.94
2023-04-02T11:25:49.772Z,20.58
2023-04-02T11:26:49.748Z,20.20
2023-04-02T11:27:49.745Z,20.73
2023-04-02T11:28:49.724Z,20.55
2023-04-02T11:29:49.735Z,20.73
2023-04-02T11:30:49.723Z,20.38
2023-04-02T11:31:49.819Z,20.31
2023-04-02T11:32:49.915Z,19.65
2023-04-02T11:33:50.222Z,19.18
2023-04-02T11:35:03.082Z,19.07
2023-04-02T11:35:50.671Z,18.47
2023-04-02T11:36:49.654Z,18.17
2023-04-02T11:37:49.740Z,18.45
2023-04-02T11:38:51.724Z,18.26
2023-04-02T11:39:49.643Z,18.26
2023-04-02T11:40:49.598Z,18.60
2023-04-02T11:41:49.600Z,19.18
2023-04-02T11:42:49.625Z,19.66
2023-04-02T11:43:49.580Z,19.39
2023-04-02T11:44:49.617Z,20.10
2023-04-02T11:45:53.337Z,20.32
2023-04-02T11:46:49.564Z,20.79
2023-04-02T11:47:49.710Z,20.72
2023-04-02T11:48:49.719Z,19.98
2023-04-02T11:49:49.511Z,20.17
2023-04-02T11:50:49.516Z,19.95
2023-04-02T11:51:50.841Z,19.98
2023-04-02T11:52:50.288Z,19.81
2023-04-02T11:53:49.489Z,19.94
2023-04-02T11:54:49.446Z,19.28
2023-04-02T11:55:49.448Z,18.75
2023-04-02T11:56:49.451Z,18.95
2023-04-02T11:57:49.427Z,19.04
2023-04-02T11:58:49.404Z,18.72
2023-04-02T11:59:49.411Z,18.76
2023-04-02T12:00:49.389Z,18.78
2023-04-02T12:01:49.432Z,18.08
2023-04-02T12:02:49.432Z,17.16
2023-04-02T12:03:49.358Z,17.43
2023-04-02T12:04:49.383Z,17.96
2023-04-02T12:05:49.333Z,18.58
2023-04-02T12:06:49.316Z,19.33
2023-04-02T12:07:49.322Z,19.88
2023-04-02T12:08:57.618Z,20.47
2023-04-02T12:09:50.295Z,19.77
2023-04-02T12:10:49.274Z,18.60
2023-04-02T12:11:51.049Z,17.82
2023-04-02T12:12:49.250Z,17.48
2023-04-02T12:13:49.247Z,17.49
2023-04-02T12:14:49.240Z,17.54
2023-04-02T12:15:49.418Z,17.56
2023-04-02T12:16:49.232Z,17.64
2023-04-02T12:17:49.252Z,17.66
2023-04-02T12:18:49.200Z,17.58
2023-04-02T12:19:49.188Z,17.48
2023-04-02T12:20:49.403Z,16.98
2023-04-02T12:21:49.169Z,16.75
2023-04-02T12:22:49.143Z,17.08
2023-04-02T12:23:49.140Z,17.66
2023-04-02T12:24:49.296Z,18.18
2023-04-02T12:25:49.132Z,18.29
2023-04-02T12:26:49.099Z,18.37
2023-04-02T12:27:49.104Z,18.35
2023-04-02T12:28:49.085Z,18.10
2023-04-02T12:29:49.076Z,17.62
2023-04-02T12:30:49.109Z,17.52
2023-04-02T12:31:49.069Z,17.78
2023-04-02T12:32:49.068Z,18.07
2023-04-02T12:33:49.039Z,17.84
2023-04-02T12:34:49.019Z,17.54
2023-04-02T12:35:49.093Z,17.40
2023-04-02T12:36:48.994Z,17.28
2023-04-02T12:37:48.993Z,17.26
2023-04-02T12:38:48.975Z,16.96
2023-04-02T12:39:48.990Z,16.75
2023-04-02T12:40:48.948Z,16.79
2023-04-02T12:41:48.968Z,16.86
2023-04-02T12:42:49.752Z,16.73
2023-04-02T12:43:49.902Z,16.93
2023-04-02T12:44:48.920Z,16.94
2023-04-02T12:45:48.956Z,16.50
2023-04-02T12:46:48.892Z,16.50
2023-04-02T12:47:49.717Z,16.61
2023-04-02T12:48:48.893Z,16.63
2023-04-02T12:49:48.871Z,16.50
2023-04-02T12:50:48.850Z,16.39
2023-04-02T12:51:49.657Z,16.50
2023-04-02T12:52:48.829Z,16.61
2023-04-02T12:53:48.831Z,16.57
2023-04-02T12:54:48.801Z,16.53
2023-04-02T12:55:48.803Z,16.39
2023-04-02T12:56:49.655Z,16.46
2023-04-02T12:57:48.779Z,16.31
2023-04-02T12:58:48.767Z,15.94
2023-04-02T12:59:48.763Z,15.86
2023-04-02T13:00:49.560Z,16.09
2023-04-02T13:01:48.827Z,16.04
2023-04-02T13:02:48.807Z,15.71
2023-04-02T13:03:48.742Z,15.67
2023-04-02T13:04:48.720Z,15.76
2023-04-02T13:05:48.698Z,15.76
2023-04-02T13:06:48.702Z,15.67
2023-04-02T13:07:48.678Z,15.67